sensor_id;sensor_type;location;lat;lon;timestamp;P1;durP1;ratioP1;P2;durP2;ratioP2
53521;SDS011;39398;48.382;9.802;2022-12-10T00:00:42;778.83;;;64.75;;
53521;SDS011;39398;48.382;9.802;2022-12-10T00:01:44;846.95;;;69.78;;
53521;SDS011;39398;48.382;9.802;2022-12-10T00:02:46;852.13;;;69.72;;
53521;SDS011;39398;48.382;9.802;2022-12-10T00:03:47;870.58;;;72.35;;
53521;SDS011;39398;48.382;9.802;2022-12-10T00:04:49;509.50;;;41.67;;
53521;SDS011;39398;48.382;9.802;2022-12-10T00:05:50;872.53;;;69.35;;
53521;SDS011;39398;48.382;9.802;2022-12-10T00:06:52;524.60;;;44.55;;
53521;SDS011;39398;48.382;9.802;2022-12-10T00:07:53;690.63;;;58.88;;
53521;SDS011;39398;48.382;9.802;2022-12-10T00:08:55;645.35;;;55.88;;
53521;SDS011;39398;48.382;9.802;2022-12-10T00:09:58;769.92;;;61.75;;
53521;SDS011;39398;48.382;9.802;2022-12-10T00:11:01;528.45;;;44.08;;
53521;SDS011;39398;48.382;9.802;2022-12-10T00:12:03;332.85;;;30.88;;
53521;SDS011;39398;48.382;9.802;2022-12-10T00:13:05;663.15;;;48.85;;
53521;SDS011;39398;48.382;9.802;2022-12-10T00:14:07;541.55;;;37.88;;
53521;SDS011;39398;48.382;9.802;2022-12-10T00:15:09;630.22;;;47.08;;
53521;SDS011;39398;48.382;9.802;2022-12-10T00:16:12;721.55;;;53.70;;
53521;SDS011;39398;48.382;9.802;2022-12-10T00:17:14;674.25;;;52.88;;
53521;SDS011;39398;48.382;9.802;2022-12-10T00:18:16;772.75;;;68.45;;
53521;SDS011;39398;48.382;9.802;2022-12-10T00:19:17;718.47;;;58.20;;
53521;SDS011;39398;48.382;9.802;2022-12-10T00:20:19;804.55;;;65.80;;
53521;SDS011;39398;48.382;9.802;2022-12-10T00:21:21;839.38;;;74.35;;
53521;SDS011;39398;48.382;9.802;2022-12-10T00:22:24;781.17;;;65.97;;
53521;SDS011;39398;48.382;9.802;2022-12-10T00:23:26;649.42;;;55.97;;
53521;SDS011;39398;48.382;9.802;2022-12-10T00:24:27;579.20;;;45.28;;
53521;SDS011;39398;48.382;9.802;2022-12-10T00:25:30;541.92;;;46.05;;
53521;SDS011;39398;48.382;9.802;2022-12-10T00:26:34;652.58;;;52.03;;
53521;SDS011;39398;48.382;9.802;2022-12-10T00:27:37;597.92;;;54.92;;
53521;SDS011;39398;48.382;9.802;2022-12-10T00:28:38;674.90;;;57.15;;
53521;SDS011;39398;48.382;9.802;2022-12-10T00:29:40;737.72;;;61.75;;
53521;SDS011;39398;48.382;9.802;2022-12-10T00:30:41;728.55;;;58.40;;
53521;SDS011;39398;48.382;9.802;2022-12-10T00:31:43;717.45;;;58.75;;
53521;SDS011;39398;48.382;9.802;2022-12-10T00:32:44;752.78;;;67.25;;
53521;SDS011;39398;48.382;9.802;2022-12-10T00:33:46;748.58;;;60.83;;
53521;SDS011;39398;48.382;9.802;2022-12-10T00:34:48;754.50;;;62.90;;
53521;SDS011;39398;48.382;9.802;2022-12-10T00:35:49;840.67;;;69.38;;
53521;SDS011;39398;48.382;9.802;2022-12-10T00:36:51;1036.63;;;88.15;;
53521;SDS011;39398;48.382;9.802;2022-12-10T00:37:52;760.40;;;67.88;;
53521;SDS011;39398;48.382;9.802;2022-12-10T00:38:54;807.50;;;69.00;;
53521;SDS011;39398;48.382;9.802;2022-12-10T00:39:56;826.22;;;74.82;;
53521;SDS011;39398;48.382;9.802;2022-12-10T00:40:58;979.03;;;88.45;;
53521;SDS011;39398;48.382;9.802;2022-12-10T00:42:01;790.45;;;67.75;;
53521;SDS011;39398;48.382;9.802;2022-12-10T00:43:02;1029.32;;;88.25;;
53521;SDS011;39398;48.382;9.802;2022-12-10T00:44:04;809.97;;;72.22;;
53521;SDS011;39398;48.382;9.802;2022-12-10T00:45:06;668.35;;;60.28;;
53521;SDS011;39398;48.382;9.802;2022-12-10T00:46:08;638.67;;;55.63;;
53521;SDS011;39398;48.382;9.802;2022-12-10T00:47:10;573.35;;;57.85;;
53521;SDS011;39398;48.382;9.802;2022-12-10T00:48:11;568.28;;;55.40;;
53521;SDS011;39398;48.382;9.802;2022-12-10T00:49:13;694.80;;;63.42;;
53521;SDS011;39398;48.382;9.802;2022-12-10T00:50:14;730.13;;;67.57;;
53521;SDS011;39398;48.382;9.802;2022-12-10T00:51:17;656.35;;;57.55;;
53521;SDS011;39398;48.382;9.802;2022-12-10T00:52:19;616.88;;;55.97;;
53521;SDS011;39398;48.382;9.802;2022-12-10T00:53:21;579.67;;;56.97;;
53521;SDS011;39398;48.382;9.802;2022-12-10T00:54:23;424.48;;;46.58;;
53521;SDS011;39398;48.382;9.802;2022-12-10T00:55:24;701.17;;;59.50;;
53521;SDS011;39398;48.382;9.802;2022-12-10T00:56:28;564.90;;;52.10;;
53521;SDS011;39398;48.382;9.802;2022-12-10T00:57:31;461.35;;;46.38;;
53521;SDS011;39398;48.382;9.802;2022-12-10T00:58:33;357.23;;;39.97;;
53521;SDS011;39398;48.382;9.802;2022-12-10T00:59:36;417.80;;;44.95;;
53521;SDS011;39398;48.382;9.802;2022-12-10T01:00:37;482.00;;;48.45;;
53521;SDS011;39398;48.382;9.802;2022-12-10T01:01:39;590.80;;;55.65;;
53521;SDS011;39398;48.382;9.802;2022-12-10T01:02:42;670.38;;;61.40;;
53521;SDS011;39398;48.382;9.802;2022-12-10T01:03:44;626.75;;;57.95;;
53521;SDS011;39398;48.382;9.802;2022-12-10T01:04:46;546.53;;;51.67;;
53521;SDS011;39398;48.382;9.802;2022-12-10T01:05:48;699.63;;;65.43;;
53521;SDS011;39398;48.382;9.802;2022-12-10T01:06:50;740.72;;;67.60;;
53521;SDS011;39398;48.382;9.802;2022-12-10T01:07:53;543.03;;;52.17;;
53521;SDS011;39398;48.382;9.802;2022-12-10T01:08:56;493.10;;;47.72;;
53521;SDS011;39398;48.382;9.802;2022-12-10T01:09:59;578.78;;;52.22;;
53521;SDS011;39398;48.382;9.802;2022-12-10T01:11:01;612.63;;;58.42;;
53521;SDS011;39398;48.382;9.802;2022-12-10T01:12:04;682.25;;;61.42;;
53521;SDS011;39398;48.382;9.802;2022-12-10T01:13:06;447.92;;;46.08;;
53521;SDS011;39398;48.382;9.802;2022-12-10T01:14:09;484.38;;;46.45;;
53521;SDS011;39398;48.382;9.802;2022-12-10T01:15:13;650.25;;;58.55;;
53521;SDS011;39398;48.382;9.802;2022-12-10T01:16:16;755.53;;;67.65;;
53521;SDS011;39398;48.382;9.802;2022-12-10T01:17:19;555.58;;;53.50;;
53521;SDS011;39398;48.382;9.802;2022-12-10T01:18:20;777.20;;;68.38;;
53521;SDS011;39398;48.382;9.802;2022-12-10T01:19:22;657.80;;;63.05;;
53521;SDS011;39398;48.382;9.802;2022-12-10T01:20:23;614.42;;;61.90;;
53521;SDS011;39398;48.382;9.802;2022-12-10T01:21:26;551.08;;;56.40;;
53521;SDS011;39398;48.382;9.802;2022-12-10T01:22:28;521.13;;;50.20;;
53521;SDS011;39398;48.382;9.802;2022-12-10T01:23:31;718.08;;;68.80;;
53521;SDS011;39398;48.382;9.802;2022-12-10T01:24:33;729.33;;;68.03;;
53521;SDS011;39398;48.382;9.802;2022-12-10T01:25:34;783.50;;;72.53;;
53521;SDS011;39398;48.382;9.802;2022-12-10T01:26:36;616.50;;;63.88;;
53521;SDS011;39398;48.382;9.802;2022-12-10T01:27:39;748.50;;;68.03;;
53521;SDS011;39398;48.382;9.802;2022-12-10T01:28:41;601.60;;;58.38;;
53521;SDS011;39398;48.382;9.802;2022-12-10T01:29:43;568.97;;;51.28;;
53521;SDS011;39398;48.382;9.802;2022-12-10T01:30:45;640.25;;;52.60;;
53521;SDS011;39398;48.382;9.802;2022-12-10T01:31:49;504.02;;;43.03;;
53521;SDS011;39398;48.382;9.802;2022-12-10T01:32:52;479.77;;;41.08;;
53521;SDS011;39398;48.382;9.802;2022-12-10T01:33:54;572.30;;;48.60;;
53521;SDS011;39398;48.382;9.802;2022-12-10T01:34:56;581.72;;;55.28;;
53521;SDS011;39398;48.382;9.802;2022-12-10T01:36:01;695.15;;;63.35;;
53521;SDS011;39398;48.382;9.802;2022-12-10T01:37:03;430.48;;;47.45;;
53521;SDS011;39398;48.382;9.802;2022-12-10T01:38:05;556.88;;;58.17;;
53521;SDS011;39398;48.382;9.802;2022-12-10T01:39:07;634.70;;;56.75;;
53521;SDS011;39398;48.382;9.802;2022-12-10T01:40:11;658.85;;;57.33;;
53521;SDS011;39398;48.382;9.802;2022-12-10T01:41:13;610.58;;;58.13;;
53521;SDS011;39398;48.382;9.802;2022-12-10T01:42:16;598.60;;;51.88;;
53521;SDS011;39398;48.382;9.802;2022-12-10T01:43:19;565.88;;;50.28;;
53521;SDS011;39398;48.382;9.802;2022-12-10T01:46:02;515.25;;;40.83;;
53521;SDS011;39398;48.382;9.802;2022-12-10T01:47:04;486.58;;;42.65;;
53521;SDS011;39398;48.382;9.802;2022-12-10T01:48:06;84.75;;;16.08;;
53521;SDS011;39398;48.382;9.802;2022-12-10T01:49:09;175.60;;;19.27;;
53521;SDS011;39398;48.382;9.802;2022-12-10T01:50:12;393.80;;;32.72;;
53521;SDS011;39398;48.382;9.802;2022-12-10T01:51:14;334.88;;;27.67;;
53521;SDS011;39398;48.382;9.802;2022-12-10T01:52:16;772.22;;;62.88;;
53521;SDS011;39398;48.382;9.802;2022-12-10T01:53:17;544.78;;;40.50;;
53521;SDS011;39398;48.382;9.802;2022-12-10T01:54:20;171.43;;;19.02;;
53521;SDS011;39398;48.382;9.802;2022-12-10T01:55:37;344.10;;;30.00;;
53521;SDS011;39398;48.382;9.802;2022-12-10T01:56:45;241.45;;;23.92;;
53521;SDS011;39398;48.382;9.802;2022-12-10T01:57:51;208.13;;;23.40;;
53521;SDS011;39398;48.382;9.802;2022-12-10T01:58:54;99.60;;;22.83;;
53521;SDS011;39398;48.382;9.802;2022-12-10T01:59:58;140.15;;;19.42;;
53521;SDS011;39398;48.382;9.802;2022-12-10T02:01:04;277.60;;;29.63;;
53521;SDS011;39398;48.382;9.802;2022-12-10T02:02:11;289.00;;;29.30;;
53521;SDS011;39398;48.382;9.802;2022-12-10T02:03:19;326.35;;;29.63;;
53521;SDS011;39398;48.382;9.802;2022-12-10T02:04:31;147.82;;;20.73;;
53521;SDS011;39398;48.382;9.802;2022-12-10T02:05:40;328.08;;;31.90;;
53521;SDS011;39398;48.382;9.802;2022-12-10T02:06:45;62.97;;;14.93;;
53521;SDS011;39398;48.382;9.802;2022-12-10T02:07:59;287.55;;;25.25;;
53521;SDS011;39398;48.382;9.802;2022-12-10T02:09:09;330.15;;;28.50;;
53521;SDS011;39398;48.382;9.802;2022-12-10T02:10:21;143.65;;;19.30;;
53521;SDS011;39398;48.382;9.802;2022-12-10T02:11:33;217.73;;;27.45;;
53521;SDS011;39398;48.382;9.802;2022-12-10T02:12:43;70.75;;;14.50;;
53521;SDS011;39398;48.382;9.802;2022-12-10T02:13:49;286.08;;;34.92;;
53521;SDS011;39398;48.382;9.802;2022-12-10T02:14:58;97.32;;;20.67;;
53521;SDS011;39398;48.382;9.802;2022-12-10T02:16:04;216.43;;;35.38;;
53521;SDS011;39398;48.382;9.802;2022-12-10T02:17:11;286.95;;;34.13;;
53521;SDS011;39398;48.382;9.802;2022-12-10T02:18:18;292.55;;;40.80;;
53521;SDS011;39398;48.382;9.802;2022-12-10T02:19:25;383.95;;;44.40;;
53521;SDS011;39398;48.382;9.802;2022-12-10T02:20:35;329.92;;;42.25;;
53521;SDS011;39398;48.382;9.802;2022-12-10T02:21:42;365.63;;;39.20;;
53521;SDS011;39398;48.382;9.802;2022-12-10T02:22:48;411.42;;;42.08;;
53521;SDS011;39398;48.382;9.802;2022-12-10T02:23:54;296.65;;;34.25;;
53521;SDS011;39398;48.382;9.802;2022-12-10T02:24:58;404.33;;;42.17;;
53521;SDS011;39398;48.382;9.802;2022-12-10T02:26:03;406.67;;;37.88;;
53521;SDS011;39398;48.382;9.802;2022-12-10T02:27:13;164.55;;;28.25;;
53521;SDS011;39398;48.382;9.802;2022-12-10T02:28:22;84.97;;;23.70;;
53521;SDS011;39398;48.382;9.802;2022-12-10T02:29:33;106.95;;;27.70;;
53521;SDS011;39398;48.382;9.802;2022-12-10T02:30:35;112.63;;;28.50;;
53521;SDS011;39398;48.382;9.802;2022-12-10T02:31:41;89.25;;;23.13;;
53521;SDS011;39398;48.382;9.802;2022-12-10T02:32:45;65.95;;;21.30;;
53521;SDS011;39398;48.382;9.802;2022-12-10T02:33:50;72.15;;;24.17;;
53521;SDS011;39398;48.382;9.802;2022-12-10T02:34:57;89.85;;;26.42;;
53521;SDS011;39398;48.382;9.802;2022-12-10T02:36:08;118.00;;;31.90;;
53521;SDS011;39398;48.382;9.802;2022-12-10T02:37:12;70.53;;;19.85;;
53521;SDS011;39398;48.382;9.802;2022-12-10T02:38:19;88.10;;;26.08;;
53521;SDS011;39398;48.382;9.802;2022-12-10T02:39:26;56.67;;;18.77;;
53521;SDS011;39398;48.382;9.802;2022-12-10T02:40:33;75.70;;;22.13;;
53521;SDS011;39398;48.382;9.802;2022-12-10T02:41:38;67.82;;;21.60;;
53521;SDS011;39398;48.382;9.802;2022-12-10T02:42:42;79.78;;;23.83;;
53521;SDS011;39398;48.382;9.802;2022-12-10T02:43:47;49.67;;;15.73;;
53521;SDS011;39398;48.382;9.802;2022-12-10T02:44:54;68.80;;;20.77;;
53521;SDS011;39398;48.382;9.802;2022-12-10T02:45:58;41.00;;;15.52;;
53521;SDS011;39398;48.382;9.802;2022-12-10T02:47:04;63.78;;;20.35;;
53521;SDS011;39398;48.382;9.802;2022-12-10T02:48:07;93.47;;;29.67;;
53521;SDS011;39398;48.382;9.802;2022-12-10T02:49:09;63.55;;;21.48;;
53521;SDS011;39398;48.382;9.802;2022-12-10T02:50:15;33.28;;;14.88;;
53521;SDS011;39398;48.382;9.802;2022-12-10T02:51:19;64.18;;;20.63;;
53521;SDS011;39398;48.382;9.802;2022-12-10T02:52:22;39.88;;;14.98;;
53521;SDS011;39398;48.382;9.802;2022-12-10T02:53:24;38.63;;;16.55;;
53521;SDS011;39398;48.382;9.802;2022-12-10T02:54:36;52.30;;;18.40;;
53521;SDS011;39398;48.382;9.802;2022-12-10T02:55:46;34.60;;;14.02;;
53521;SDS011;39398;48.382;9.802;2022-12-10T02:57:02;51.22;;;19.75;;
53521;SDS011;39398;48.382;9.802;2022-12-10T02:58:13;42.13;;;17.50;;
53521;SDS011;39398;48.382;9.802;2022-12-10T02:59:26;39.92;;;18.77;;
53521;SDS011;39398;48.382;9.802;2022-12-10T03:00:33;34.08;;;17.50;;
53521;SDS011;39398;48.382;9.802;2022-12-10T03:01:44;31.08;;;13.05;;
53521;SDS011;39398;48.382;9.802;2022-12-10T03:02:57;34.45;;;16.25;;
53521;SDS011;39398;48.382;9.802;2022-12-10T03:04:16;40.30;;;17.20;;
53521;SDS011;39398;48.382;9.802;2022-12-10T03:05:25;36.25;;;17.50;;
53521;SDS011;39398;48.382;9.802;2022-12-10T03:06:36;44.60;;;16.48;;
53521;SDS011;39398;48.382;9.802;2022-12-10T03:07:42;38.00;;;15.88;;
53521;SDS011;39398;48.382;9.802;2022-12-10T03:08:49;47.33;;;22.35;;
53521;SDS011;39398;48.382;9.802;2022-12-10T03:09:53;33.95;;;14.95;;
53521;SDS011;39398;48.382;9.802;2022-12-10T03:11:01;41.75;;;17.73;;
53521;SDS011;39398;48.382;9.802;2022-12-10T03:12:11;37.33;;;15.65;;
53521;SDS011;39398;48.382;9.802;2022-12-10T03:13:19;41.55;;;21.75;;
53521;SDS011;39398;48.382;9.802;2022-12-10T03:14:28;34.95;;;17.98;;
53521;SDS011;39398;48.382;9.802;2022-12-10T03:15:34;35.83;;;15.65;;
53521;SDS011;39398;48.382;9.802;2022-12-10T03:16:40;37.60;;;21.58;;
53521;SDS011;39398;48.382;9.802;2022-12-10T03:17:45;56.60;;;21.20;;
53521;SDS011;39398;48.382;9.802;2022-12-10T03:18:49;38.38;;;15.88;;
53521;SDS011;39398;48.382;9.802;2022-12-10T03:19:53;41.50;;;20.20;;
53521;SDS011;39398;48.382;9.802;2022-12-10T03:20:59;34.65;;;15.15;;
53521;SDS011;39398;48.382;9.802;2022-12-10T03:22:04;37.08;;;16.00;;
53521;SDS011;39398;48.382;9.802;2022-12-10T03:23:09;60.65;;;19.23;;
53521;SDS011;39398;48.382;9.802;2022-12-10T03:24:14;61.28;;;19.45;;
53521;SDS011;39398;48.382;9.802;2022-12-10T03:25:18;74.72;;;24.33;;
53521;SDS011;39398;48.382;9.802;2022-12-10T03:26:24;39.35;;;17.33;;
53521;SDS011;39398;48.382;9.802;2022-12-10T03:27:27;40.00;;;15.32;;
53521;SDS011;39398;48.382;9.802;2022-12-10T03:28:31;41.47;;;15.77;;
53521;SDS011;39398;48.382;9.802;2022-12-10T03:29:42;39.08;;;15.75;;
53521;SDS011;39398;48.382;9.802;2022-12-10T03:30:48;50.88;;;17.75;;
53521;SDS011;39398;48.382;9.802;2022-12-10T03:31:51;37.83;;;17.20;;
53521;SDS011;39398;48.382;9.802;2022-12-10T03:32:54;41.35;;;16.75;;
53521;SDS011;39398;48.382;9.802;2022-12-10T03:33:56;33.53;;;17.00;;
53521;SDS011;39398;48.382;9.802;2022-12-10T03:34:58;42.30;;;15.50;;
53521;SDS011;39398;48.382;9.802;2022-12-10T03:36:03;34.92;;;16.65;;
53521;SDS011;39398;48.382;9.802;2022-12-10T03:37:06;39.08;;;17.88;;
53521;SDS011;39398;48.382;9.802;2022-12-10T03:38:08;35.17;;;16.85;;
53521;SDS011;39398;48.382;9.802;2022-12-10T03:39:11;48.25;;;18.27;;
53521;SDS011;39398;48.382;9.802;2022-12-10T03:40:14;44.25;;;19.20;;
53521;SDS011;39398;48.382;9.802;2022-12-10T03:41:15;37.38;;;14.50;;
53521;SDS011;39398;48.382;9.802;2022-12-10T03:42:17;48.88;;;18.52;;
53521;SDS011;39398;48.382;9.802;2022-12-10T03:43:18;49.55;;;19.73;;
53521;SDS011;39398;48.382;9.802;2022-12-10T03:44:28;38.47;;;17.05;;
53521;SDS011;39398;48.382;9.802;2022-12-10T03:45:30;44.22;;;21.42;;
53521;SDS011;39398;48.382;9.802;2022-12-10T03:46:33;40.17;;;17.65;;
53521;SDS011;39398;48.382;9.802;2022-12-10T03:47:35;35.53;;;15.57;;
53521;SDS011;39398;48.382;9.802;2022-12-10T03:48:36;48.88;;;20.77;;
53521;SDS011;39398;48.382;9.802;2022-12-10T03:49:38;40.40;;;17.05;;
53521;SDS011;39398;48.382;9.802;2022-12-10T03:50:40;58.72;;;21.27;;
53521;SDS011;39398;48.382;9.802;2022-12-10T03:51:41;33.28;;;17.05;;
53521;SDS011;39398;48.382;9.802;2022-12-10T03:52:43;51.95;;;21.02;;
53521;SDS011;39398;48.382;9.802;2022-12-10T03:53:44;47.75;;;17.63;;
53521;SDS011;39398;48.382;9.802;2022-12-10T03:54:46;79.38;;;26.08;;
53521;SDS011;39398;48.382;9.802;2022-12-10T03:55:48;64.57;;;20.67;;
53521;SDS011;39398;48.382;9.802;2022-12-10T03:56:49;43.17;;;17.10;;
53521;SDS011;39398;48.382;9.802;2022-12-10T03:57:51;33.55;;;16.13;;
53521;SDS011;39398;48.382;9.802;2022-12-10T03:58:52;32.95;;;13.85;;
53521;SDS011;39398;48.382;9.802;2022-12-10T03:59:54;43.50;;;16.27;;
53521;SDS011;39398;48.382;9.802;2022-12-10T04:00:55;48.60;;;16.20;;
53521;SDS011;39398;48.382;9.802;2022-12-10T04:01:58;60.85;;;22.02;;
53521;SDS011;39398;48.382;9.802;2022-12-10T04:03:00;59.63;;;19.83;;
53521;SDS011;39398;48.382;9.802;2022-12-10T04:04:02;37.75;;;16.58;;
53521;SDS011;39398;48.382;9.802;2022-12-10T04:05:04;46.33;;;18.35;;
53521;SDS011;39398;48.382;9.802;2022-12-10T04:06:06;37.80;;;18.83;;
53521;SDS011;39398;48.382;9.802;2022-12-10T04:07:09;43.55;;;18.63;;
53521;SDS011;39398;48.382;9.802;2022-12-10T04:08:11;40.53;;;17.95;;
53521;SDS011;39398;48.382;9.802;2022-12-10T04:09:13;59.78;;;21.88;;
53521;SDS011;39398;48.382;9.802;2022-12-10T04:10:16;50.63;;;19.73;;
53521;SDS011;39398;48.382;9.802;2022-12-10T04:11:18;37.28;;;17.00;;
53521;SDS011;39398;48.382;9.802;2022-12-10T04:12:20;85.07;;;28.90;;
53521;SDS011;39398;48.382;9.802;2022-12-10T04:13:22;42.15;;;17.75;;
53521;SDS011;39398;48.382;9.802;2022-12-10T04:14:23;42.10;;;16.67;;
53521;SDS011;39398;48.382;9.802;2022-12-10T04:15:26;37.30;;;17.05;;
53521;SDS011;39398;48.382;9.802;2022-12-10T04:16:28;33.58;;;14.52;;
53521;SDS011;39398;48.382;9.802;2022-12-10T04:17:33;45.22;;;16.20;;
53521;SDS011;39398;48.382;9.802;2022-12-10T04:18:35;61.65;;;23.52;;
53521;SDS011;39398;48.382;9.802;2022-12-10T04:19:36;30.42;;;16.10;;
53521;SDS011;39398;48.382;9.802;2022-12-10T04:20:38;36.88;;;16.58;;
53521;SDS011;39398;48.382;9.802;2022-12-10T04:21:40;36.20;;;17.90;;
53521;SDS011;39398;48.382;9.802;2022-12-10T04:22:42;36.40;;;16.13;;
53521;SDS011;39398;48.382;9.802;2022-12-10T04:23:44;41.15;;;19.95;;
53521;SDS011;39398;48.382;9.802;2022-12-10T04:24:45;46.90;;;24.20;;
53521;SDS011;39398;48.382;9.802;2022-12-10T04:25:47;44.60;;;24.60;;
53521;SDS011;39398;48.382;9.802;2022-12-10T04:26:49;39.65;;;19.23;;
53521;SDS011;39398;48.382;9.802;2022-12-10T04:27:50;54.95;;;17.95;;
53521;SDS011;39398;48.382;9.802;2022-12-10T04:28:52;52.55;;;19.25;;
53521;SDS011;39398;48.382;9.802;2022-12-10T04:29:54;43.72;;;16.65;;
53521;SDS011;39398;48.382;9.802;2022-12-10T04:30:57;38.25;;;17.08;;
53521;SDS011;39398;48.382;9.802;2022-12-10T04:31:58;35.67;;;16.02;;
53521;SDS011;39398;48.382;9.802;2022-12-10T04:33:01;38.63;;;17.42;;
53521;SDS011;39398;48.382;9.802;2022-12-10T04:34:03;34.95;;;15.18;;
53521;SDS011;39398;48.382;9.802;2022-12-10T04:35:05;27.95;;;14.15;;
53521;SDS011;39398;48.382;9.802;2022-12-10T04:36:07;34.35;;;17.45;;
53521;SDS011;39398;48.382;9.802;2022-12-10T04:37:09;26.27;;;11.18;;
53521;SDS011;39398;48.382;9.802;2022-12-10T04:38:11;44.42;;;23.17;;
53521;SDS011;39398;48.382;9.802;2022-12-10T04:39:13;42.75;;;22.10;;
53521;SDS011;39398;48.382;9.802;2022-12-10T04:40:15;53.17;;;20.90;;
53521;SDS011;39398;48.382;9.802;2022-12-10T04:41:16;39.03;;;18.65;;
53521;SDS011;39398;48.382;9.802;2022-12-10T04:42:18;41.05;;;23.55;;
53521;SDS011;39398;48.382;9.802;2022-12-10T04:43:21;44.85;;;20.90;;
53521;SDS011;39398;48.382;9.802;2022-12-10T04:44:22;24.90;;;12.27;;
53521;SDS011;39398;48.382;9.802;2022-12-10T04:45:24;29.83;;;13.40;;
53521;SDS011;39398;48.382;9.802;2022-12-10T04:46:25;45.97;;;16.42;;
53521;SDS011;39398;48.382;9.802;2022-12-10T04:47:28;35.78;;;16.48;;
53521;SDS011;39398;48.382;9.802;2022-12-10T04:48:31;41.75;;;18.02;;
53521;SDS011;39398;48.382;9.802;2022-12-10T04:49:33;28.95;;;13.85;;
53521;SDS011;39398;48.382;9.802;2022-12-10T04:50:35;34.35;;;14.13;;
53521;SDS011;39398;48.382;9.802;2022-12-10T04:51:36;34.28;;;11.45;;
53521;SDS011;39398;48.382;9.802;2022-12-10T04:52:38;40.17;;;16.88;;
53521;SDS011;39398;48.382;9.802;2022-12-10T04:53:40;52.30;;;19.70;;
53521;SDS011;39398;48.382;9.802;2022-12-10T04:54:42;55.92;;;21.50;;
53521;SDS011;39398;48.382;9.802;2022-12-10T04:55:44;45.88;;;18.05;;
53521;SDS011;39398;48.382;9.802;2022-12-10T04:56:45;33.67;;;15.15;;
53521;SDS011;39398;48.382;9.802;2022-12-10T04:57:47;42.10;;;16.70;;
53521;SDS011;39398;48.382;9.802;2022-12-10T04:58:48;26.35;;;11.35;;
53521;SDS011;39398;48.382;9.802;2022-12-10T04:59:50;45.60;;;16.50;;
53521;SDS011;39398;48.382;9.802;2022-12-10T05:00:52;49.67;;;19.13;;
53521;SDS011;39398;48.382;9.802;2022-12-10T05:01:53;34.80;;;16.15;;
53521;SDS011;39398;48.382;9.802;2022-12-10T05:02:55;40.47;;;17.42;;
53521;SDS011;39398;48.382;9.802;2022-12-10T05:03:59;36.17;;;16.77;;
53521;SDS011;39398;48.382;9.802;2022-12-10T05:05:01;44.40;;;18.08;;
53521;SDS011;39398;48.382;9.802;2022-12-10T05:06:03;24.45;;;11.65;;
53521;SDS011;39398;48.382;9.802;2022-12-10T05:07:06;29.60;;;13.38;;
53521;SDS011;39398;48.382;9.802;2022-12-10T05:08:07;35.25;;;16.95;;
53521;SDS011;39398;48.382;9.802;2022-12-10T05:09:09;45.40;;;19.08;;
53521;SDS011;39398;48.382;9.802;2022-12-10T05:10:11;29.73;;;12.10;;
53521;SDS011;39398;48.382;9.802;2022-12-10T05:11:13;27.27;;;14.63;;
53521;SDS011;39398;48.382;9.802;2022-12-10T05:12:16;38.20;;;19.65;;
53521;SDS011;39398;48.382;9.802;2022-12-10T05:13:18;31.02;;;13.55;;
53521;SDS011;39398;48.382;9.802;2022-12-10T05:14:19;34.08;;;16.02;;
53521;SDS011;39398;48.382;9.802;2022-12-10T05:15:21;38.40;;;18.25;;
53521;SDS011;39398;48.382;9.802;2022-12-10T05:16:24;37.17;;;17.48;;
53521;SDS011;39398;48.382;9.802;2022-12-10T05:17:27;41.47;;;16.60;;
53521;SDS011;39398;48.382;9.802;2022-12-10T05:18:28;43.53;;;16.42;;
53521;SDS011;39398;48.382;9.802;2022-12-10T05:19:31;22.55;;;9.75;;
53521;SDS011;39398;48.382;9.802;2022-12-10T05:20:33;30.42;;;14.88;;
53521;SDS011;39398;48.382;9.802;2022-12-10T05:21:34;46.65;;;17.35;;
53521;SDS011;39398;48.382;9.802;2022-12-10T05:22:36;33.20;;;12.68;;
53521;SDS011;39398;48.382;9.802;2022-12-10T05:23:38;39.15;;;16.02;;
53521;SDS011;39398;48.382;9.802;2022-12-10T05:24:41;26.42;;;12.95;;
53521;SDS011;39398;48.382;9.802;2022-12-10T05:25:42;32.20;;;13.02;;
53521;SDS011;39398;48.382;9.802;2022-12-10T05:26:44;41.17;;;15.63;;
53521;SDS011;39398;48.382;9.802;2022-12-10T05:27:46;38.22;;;16.10;;
53521;SDS011;39398;48.382;9.802;2022-12-10T05:28:49;43.97;;;15.40;;
53521;SDS011;39398;48.382;9.802;2022-12-10T05:29:52;37.70;;;17.65;;
53521;SDS011;39398;48.382;9.802;2022-12-10T05:30:53;44.67;;;16.08;;
53521;SDS011;39398;48.382;9.802;2022-12-10T05:31:55;30.13;;;16.48;;
53521;SDS011;39398;48.382;9.802;2022-12-10T05:32:57;29.73;;;13.52;;
53521;SDS011;39398;48.382;9.802;2022-12-10T05:33:58;31.42;;;14.23;;
53521;SDS011;39398;48.382;9.802;2022-12-10T05:35:01;29.17;;;14.23;;
53521;SDS011;39398;48.382;9.802;2022-12-10T05:36:03;30.70;;;16.20;;
53521;SDS011;39398;48.382;9.802;2022-12-10T05:37:05;31.08;;;13.25;;
53521;SDS011;39398;48.382;9.802;2022-12-10T05:38:07;32.50;;;13.90;;
53521;SDS011;39398;48.382;9.802;2022-12-10T05:39:09;49.53;;;18.10;;
53521;SDS011;39398;48.382;9.802;2022-12-10T05:40:11;33.50;;;13.02;;
53521;SDS011;39398;48.382;9.802;2022-12-10T05:41:14;44.10;;;17.70;;
53521;SDS011;39398;48.382;9.802;2022-12-10T05:42:16;30.40;;;12.07;;
53521;SDS011;39398;48.382;9.802;2022-12-10T05:43:18;32.10;;;15.57;;
53521;SDS011;39398;48.382;9.802;2022-12-10T05:44:19;28.70;;;13.48;;
53521;SDS011;39398;48.382;9.802;2022-12-10T05:45:21;43.70;;;17.25;;
53521;SDS011;39398;48.382;9.802;2022-12-10T05:46:24;40.83;;;17.80;;
53521;SDS011;39398;48.382;9.802;2022-12-10T05:47:26;42.15;;;17.25;;
53521;SDS011;39398;48.382;9.802;2022-12-10T05:48:28;55.65;;;20.45;;
53521;SDS011;39398;48.382;9.802;2022-12-10T05:49:29;38.47;;;15.90;;
53521;SDS011;39398;48.382;9.802;2022-12-10T05:50:32;37.42;;;14.18;;
53521;SDS011;39398;48.382;9.802;2022-12-10T05:51:35;42.95;;;18.92;;
53521;SDS011;39398;48.382;9.802;2022-12-10T05:52:38;33.97;;;15.30;;
53521;SDS011;39398;48.382;9.802;2022-12-10T05:53:40;43.40;;;16.25;;
53521;SDS011;39398;48.382;9.802;2022-12-10T05:54:42;34.20;;;14.82;;
53521;SDS011;39398;48.382;9.802;2022-12-10T05:55:43;44.65;;;17.75;;
53521;SDS011;39398;48.382;9.802;2022-12-10T05:56:45;45.65;;;19.67;;
53521;SDS011;39398;48.382;9.802;2022-12-10T05:57:47;75.85;;;27.92;;
53521;SDS011;39398;48.382;9.802;2022-12-10T05:58:49;74.55;;;27.58;;
53521;SDS011;39398;48.382;9.802;2022-12-10T05:59:52;79.50;;;28.27;;
53521;SDS011;39398;48.382;9.802;2022-12-10T06:00:53;71.00;;;24.98;;
53521;SDS011;39398;48.382;9.802;2022-12-10T06:01:55;41.13;;;16.17;;
53521;SDS011;39398;48.382;9.802;2022-12-10T06:02:56;54.33;;;20.92;;
53521;SDS011;39398;48.382;9.802;2022-12-10T06:03:59;58.95;;;22.05;;
53521;SDS011;39398;48.382;9.802;2022-12-10T06:05:01;61.35;;;23.10;;
53521;SDS011;39398;48.382;9.802;2022-12-10T06:06:05;59.78;;;22.52;;
53521;SDS011;39398;48.382;9.802;2022-12-10T06:07:07;68.85;;;24.40;;
53521;SDS011;39398;48.382;9.802;2022-12-10T06:08:11;49.47;;;18.10;;
53521;SDS011;39398;48.382;9.802;2022-12-10T06:09:13;48.42;;;19.25;;
53521;SDS011;39398;48.382;9.802;2022-12-10T06:10:14;57.25;;;22.55;;